createdAt,value
2023-01-30T00:00:26.825Z,10.88
2023-01-30T00:04:28.258Z,13.75
2023-01-30T00:08:29.743Z,6.00
2023-01-30T00:12:31.211Z,10.02
2023-01-30T00:16:32.857Z,7.72
2023-01-30T00:20:34.594Z,10.65
2023-01-30T00:24:36.048Z,15.75
2023-01-30T00:28:38.146Z,9.45
2023-01-30T00:32:39.640Z,8.63
2023-01-30T00:36:41.153Z,7.78
2023-01-30T00:40:43.709Z,12.95
2023-01-30T00:45:03.600Z,12.18
2023-01-30T00:49:05.047Z,12.55
2023-01-30T00:53:06.493Z,14.10
2023-01-30T00:57:08.138Z,7.28
2023-01-30T01:01:09.619Z,11.63
2023-01-30T01:05:11.078Z,6.80
2023-01-30T01:09:12.633Z,15.00
2023-01-30T01:13:14.109Z,9.35
2023-01-30T01:17:15.548Z,13.82
2023-01-30T01:21:19.314Z,12.20
2023-01-30T01:25:21.711Z,18.83
2023-01-30T01:29:23.228Z,10.77
2023-01-30T01:33:29.222Z,10.35
2023-01-30T01:37:30.851Z,9.15
2023-01-30T01:41:32.313Z,9.15
2023-01-30T01:45:33.925Z,10.95
2023-01-30T01:49:37.067Z,14.52
2023-01-30T01:53:47.232Z,11.85
2023-01-30T01:57:54.855Z,9.18
2023-01-30T02:02:00.931Z,14.68
2023-01-30T02:06:03.659Z,11.88
2023-01-30T02:10:08.492Z,11.77
2023-01-30T02:14:12.175Z,13.88
2023-01-30T02:18:15.776Z,15.77
2023-01-30T02:22:54.719Z,10.02
2023-01-30T02:27:13.550Z,8.82
2023-01-30T02:31:25.597Z,18.75
2023-01-30T02:35:35.905Z,11.65
2023-01-30T02:40:10.915Z,11.05
2023-01-30T02:44:24.296Z,10.88
2023-01-30T02:48:36.461Z,13.57
2023-01-30T02:52:39.850Z,19.60
2023-01-30T02:56:48.632Z,15.10
2023-01-30T03:01:20.632Z,15.88
2023-01-30T03:05:43.146Z,21.48
2023-01-30T03:09:59.755Z,22.25
2023-01-30T03:14:38.263Z,14.20
2023-01-30T03:18:43.611Z,8.52
2023-01-30T03:22:45.074Z,20.00
2023-01-30T03:26:59.137Z,9.05
2023-01-30T03:31:00.727Z,14.60
2023-01-30T03:35:02.230Z,18.98
2023-01-30T03:39:03.988Z,11.18
2023-01-30T03:43:05.442Z,14.55
2023-01-30T03:47:06.891Z,12.15
2023-01-30T03:51:08.347Z,16.92
2023-01-30T03:55:10.775Z,6.82
2023-01-30T03:59:12.492Z,11.85
2023-01-30T04:03:15.660Z,12.18
2023-01-30T04:07:17.699Z,20.15
2023-01-30T04:11:19.252Z,13.38
2023-01-30T04:15:20.885Z,13.90
2023-01-30T04:19:22.414Z,11.10
2023-01-30T04:23:23.893Z,16.05
2023-01-30T04:27:25.330Z,14.43
2023-01-30T04:31:26.835Z,19.88
2023-01-30T04:35:28.251Z,16.10
2023-01-30T04:39:29.697Z,9.25
2023-01-30T04:43:32.309Z,12.93
2023-01-30T04:47:33.756Z,12.05
2023-01-30T04:51:35.233Z,15.90
2023-01-30T04:55:37.467Z,9.73
2023-01-30T04:59:38.928Z,8.02
2023-01-30T05:03:40.531Z,13.73
2023-01-30T05:07:41.988Z,9.18
2023-01-30T05:11:43.504Z,11.98
2023-01-30T05:15:45.208Z,7.60
2023-01-30T05:19:46.671Z,18.75
2023-01-30T05:23:48.435Z,17.15
2023-01-30T05:27:49.872Z,20.15
2023-01-30T05:31:51.359Z,14.45
2023-01-30T05:35:52.893Z,21.02
2023-01-30T05:39:54.329Z,16.25
2023-01-30T05:43:55.743Z,17.92
2023-01-30T05:48:01.272Z,20.08
2023-01-30T05:52:03.240Z,12.50
2023-01-30T05:56:05.618Z,21.23
2023-01-30T06:00:07.783Z,23.52
2023-01-30T06:04:09.237Z,14.30
2023-01-30T06:08:12.572Z,14.25
2023-01-30T06:12:14.044Z,19.73
2023-01-30T06:16:18.026Z,20.73
2023-01-30T06:20:19.843Z,19.80
2023-01-30T06:24:21.282Z,15.30
2023-01-30T06:28:24.144Z,23.88
2023-01-30T06:32:25.552Z,27.25
2023-01-30T06:36:27.013Z,22.63
2023-01-30T06:40:28.483Z,12.27
2023-01-30T06:44:30.063Z,18.35
2023-01-30T06:48:31.569Z,21.33
2023-01-30T06:52:32.991Z,23.15
2023-01-30T06:56:34.518Z,23.65
2023-01-30T07:00:39.577Z,21.17
2023-01-30T07:04:41.563Z,16.88
2023-01-30T07:08:44.333Z,27.10
2023-01-30T07:12:46.530Z,16.58
2023-01-30T07:16:47.944Z,21.92
2023-01-30T07:20:49.938Z,20.85
2023-01-30T07:24:51.439Z,16.38
2023-01-30T07:28:52.889Z,15.38
2023-01-30T07:32:57.774Z,16.10
2023-01-30T07:36:59.704Z,17.17
2023-01-30T07:41:01.181Z,20.98
2023-01-30T07:45:02.624Z,15.30
2023-01-30T07:49:05.198Z,19.45
2023-01-30T07:53:09.063Z,19.75
2023-01-30T07:57:10.528Z,21.23
2023-01-30T08:01:12.076Z,10.80
2023-01-30T08:05:13.580Z,16.90
2023-01-30T08:09:15.060Z,17.02
2023-01-30T08:13:16.814Z,16.23
2023-01-30T08:17:18.278Z,9.45
2023-01-30T08:21:19.759Z,14.20
2023-01-30T08:25:22.186Z,13.80
2023-01-30T08:29:23.764Z,12.90
2023-01-30T08:33:25.484Z,21.17
2023-01-30T08:37:26.998Z,14.77
2023-01-30T08:41:28.422Z,16.88
2023-01-30T08:45:30.196Z,14.15
2023-01-30T08:49:31.627Z,12.13
2023-01-30T08:53:33.393Z,17.92
2023-01-30T08:57:35.320Z,16.10
2023-01-30T09:01:38.241Z,14.35
2023-01-30T09:05:39.675Z,3.20
2023-01-30T09:09:41.142Z,5.45
2023-01-30T09:13:43.586Z,3.65
2023-01-30T09:17:45.197Z,4.28
2023-01-30T09:21:48.499Z,2.92
2023-01-30T09:25:49.921Z,4.78
2023-01-30T09:29:51.483Z,5.22
2023-01-30T09:33:52.962Z,1.55
2023-01-30T09:37:54.459Z,5.00
2023-01-30T09:42:17.848Z,3.78
2023-01-30T09:46:40.558Z,3.08
2023-01-30T09:50:55.377Z,4.90
2023-01-30T09:55:19.482Z,2.33
2023-01-30T09:59:30.434Z,5.78
2023-01-30T10:03:42.312Z,6.43
2023-01-30T10:08:06.761Z,6.63
2023-01-30T10:12:31.679Z,1.45
2023-01-30T10:16:45.626Z,5.10
2023-01-30T10:21:03.195Z,2.25
2023-01-30T10:25:18.620Z,1.42
2023-01-30T10:29:27.078Z,2.03
2023-01-30T10:33:50.520Z,7.05
2023-01-30T10:38:21.732Z,6.25
2023-01-30T10:42:44.510Z,2.80
2023-01-30T10:47:17.151Z,6.45
2023-01-30T10:51:28.222Z,5.10
2023-01-30T10:55:38.144Z,5.35
2023-01-30T10:59:59.468Z,8.40
2023-01-30T11:04:12.792Z,4.80
2023-01-30T11:08:34.882Z,6.70
2023-01-30T11:12:36.304Z,4.22
2023-01-30T11:16:45.069Z,4.18
2023-01-30T11:21:01.951Z,7.43
2023-01-30T11:25:24.127Z,5.95
2023-01-30T11:29:31.704Z,4.47
2023-01-30T11:33:36.392Z,1.38
2023-01-30T11:37:40.503Z,8.63
2023-01-30T11:42:04.952Z,2.92
2023-01-30T11:46:09.254Z,4.95
2023-01-30T11:50:20.894Z,2.60
2023-01-30T11:54:35.581Z,3.45
2023-01-30T11:58:40.726Z,10.35
2023-01-30T12:02:45.056Z,11.13
2023-01-30T12:06:46.573Z,9.80
2023-01-30T12:11:01.396Z,6.13
2023-01-30T12:15:23.285Z,7.18
2023-01-30T12:20:14.303Z,8.15
2023-01-30T12:24:40.217Z,16.50
2023-01-30T12:28:41.615Z,3.95
2023-01-30T12:32:44.316Z,10.40
2023-01-30T12:36:57.414Z,6.68
2023-01-30T12:41:40.639Z,5.25
2023-01-30T12:46:00.834Z,5.57
2023-01-30T12:50:21.140Z,5.28
2023-01-30T12:59:48.954Z,4.60
2023-01-30T13:04:56.555Z,7.63
2023-01-30T13:09:06.108Z,1.83
2023-01-30T13:13:18.236Z,9.40
2023-01-30T13:17:59.932Z,7.95
2023-01-30T13:22:26.061Z,6.32
2023-01-30T13:26:34.226Z,4.32
2023-01-30T13:30:36.159Z,4.25
2023-01-30T13:34:47.836Z,2.75
2023-01-30T13:39:10.525Z,3.42
2023-01-30T13:43:30.282Z,12.23
2023-01-30T13:47:56.662Z,6.18
2023-01-30T13:52:08.904Z,8.30
2023-01-30T13:56:40.168Z,7.40
2023-01-30T14:00:53.387Z,3.00
2023-01-30T14:04:56.469Z,3.22
2023-01-30T14:09:01.310Z,7.97
2023-01-30T14:13:06.202Z,2.95
2023-01-30T14:17:17.545Z,1.42
2023-01-30T14:21:24.985Z,3.28
2023-01-30T14:25:29.258Z,1.52
2023-01-30T14:29:42.430Z,0.80
2023-01-30T14:33:51.613Z,0.60
2023-01-30T14:38:13.301Z,1.80
2023-01-30T14:42:32.965Z,1.00
2023-01-30T14:46:42.224Z,1.08
2023-01-30T14:51:17.849Z,0.80
2023-01-30T14:55:23.460Z,0.88
2023-01-30T15:00:02.661Z,3.63
2023-01-30T15:04:16.261Z,1.58
2023-01-30T15:08:26.430Z,1.55
2023-01-30T15:13:02.636Z,1.27
2023-01-30T15:17:30.113Z,1.83
2023-01-30T15:22:04.211Z,8.73
2023-01-30T15:26:30.659Z,1.00
2023-01-30T15:30:43.086Z,4.80
2023-01-30T15:34:52.272Z,8.10
2023-01-30T15:39:16.450Z,10.98
2023-01-30T15:43:23.683Z,4.57
2023-01-30T15:47:52.393Z,3.00
2023-01-30T15:51:54.006Z,5.63
2023-01-30T15:55:55.681Z,1.65
2023-01-30T15:59:58.482Z,2.05
2023-01-30T16:04:00.368Z,4.40
2023-01-30T16:08:17.904Z,5.47
2023-01-30T16:12:27.459Z,4.30
2023-01-30T16:16:29.944Z,4.63
2023-01-30T16:20:43.725Z,4.22
2023-01-30T16:24:54.515Z,1.95
2023-01-30T16:29:18.127Z,4.30
2023-01-30T16:33:19.535Z,7.63
2023-01-30T16:37:20.945Z,2.17
2023-01-30T16:41:34.367Z,4.32
2023-01-30T16:45:35.818Z,3.72
2023-01-30T16:49:37.219Z,6.75
2023-01-30T16:54:00.530Z,4.25
2023-01-30T16:58:04.477Z,8.68
2023-01-30T17:02:07.270Z,4.00
2023-01-30T17:06:19.171Z,10.77
2023-01-30T17:10:39.222Z,4.57
2023-01-30T17:14:40.935Z,4.20
2023-01-30T17:18:42.437Z,4.70
2023-01-30T17:22:48.449Z,3.70
2023-01-30T17:26:53.511Z,6.88
2023-01-30T17:30:55.258Z,9.13
2023-01-30T17:34:58.751Z,5.63
2023-01-30T17:39:00.313Z,2.92
2023-01-30T17:43:02.109Z,2.58
2023-01-30T17:47:03.683Z,14.70
2023-01-30T17:51:05.409Z,13.05
2023-01-30T17:55:07.766Z,4.65
2023-01-30T17:59:14.770Z,3.72
2023-01-30T18:03:16.325Z,9.25
2023-01-30T18:07:17.970Z,14.25
2023-01-30T18:11:20.996Z,7.40
2023-01-30T18:15:23.043Z,8.60
2023-01-30T18:19:24.758Z,9.63
2023-01-30T18:23:26.415Z,14.13
2023-01-30T18:27:28.089Z,2.78
2023-01-30T18:31:30.753Z,9.63
2023-01-30T18:35:32.340Z,17.13
2023-01-30T18:39:34.867Z,16.67
2023-01-30T18:43:36.570Z,8.63
2023-01-30T18:47:38.236Z,6.72
2023-01-30T18:51:40.461Z,14.25
2023-01-30T18:55:49.441Z,14.50
2023-01-30T18:59:52.010Z,14.27
2023-01-30T19:03:58.317Z,15.60
2023-01-30T19:07:59.748Z,19.63
2023-01-30T19:12:19.855Z,12.93
2023-01-30T19:16:23.723Z,8.20
2023-01-30T19:20:26.302Z,3.88
2023-01-30T19:24:28.124Z,8.25
2023-01-30T19:28:31.289Z,13.80
2023-01-30T19:32:32.956Z,9.10
2023-01-30T19:36:36.209Z,15.98
2023-01-30T19:40:45.087Z,16.98
2023-01-30T19:44:46.679Z,10.15
2023-01-30T19:48:49.407Z,13.05
2023-01-30T19:52:54.048Z,10.75
2023-01-30T19:56:55.651Z,10.88
2023-01-30T20:01:09.788Z,15.45
2023-01-30T20:05:11.570Z,7.30
2023-01-30T20:09:16.046Z,9.88
2023-01-30T20:13:17.520Z,7.75
2023-01-30T20:17:18.964Z,23.40
2023-01-30T20:21:21.537Z,8.65
2023-01-30T20:25:23.078Z,9.60
2023-01-30T20:29:24.492Z,15.82
2023-01-30T20:33:26.771Z,3.63
2023-01-30T20:37:28.602Z,7.80
2023-01-30T20:41:32.430Z,10.45
2023-01-30T20:45:33.924Z,8.10
2023-01-30T20:49:35.389Z,11.90
2023-01-30T20:53:45.671Z,9.15
2023-01-30T20:57:47.127Z,9.32
2023-01-30T21:01:48.885Z,11.88
2023-01-30T21:06:00.119Z,6.85
2023-01-30T21:10:01.563Z,14.30
2023-01-30T21:14:04.181Z,11.13
2023-01-30T21:18:05.873Z,4.40
2023-01-30T21:22:10.477Z,9.65
2023-01-30T21:26:13.246Z,4.93
2023-01-30T21:30:14.792Z,1.65
2023-01-30T21:34:16.470Z,10.23
2023-01-30T21:38:36.771Z,4.25
2023-01-30T21:42:56.677Z,3.45
2023-01-30T21:46:58.406Z,18.67
2023-01-30T21:51:09.768Z,4.32
2023-01-30T21:55:11.226Z,3.97
2023-01-30T21:59:13.392Z,3.30
2023-01-30T22:03:14.826Z,7.13
2023-01-30T22:07:16.316Z,6.95
2023-01-30T22:11:20.287Z,8.95
2023-01-30T22:15:22.628Z,12.25
2023-01-30T22:19:24.074Z,4.70
2023-01-30T22:23:30.859Z,9.55
2023-01-30T22:27:32.446Z,5.78
2023-01-30T22:31:36.360Z,6.28
2023-01-30T22:35:38.361Z,5.45
2023-01-30T22:39:40.867Z,5.53
2023-01-30T22:43:55.644Z,6.85
2023-01-30T22:47:57.137Z,7.03
2023-01-30T22:51:58.616Z,12.68
2023-01-30T22:56:02.185Z,7.60
2023-01-30T23:00:04.979Z,15.43
2023-01-30T23:04:06.681Z,3.60
2023-01-30T23:08:08.280Z,9.45
2023-01-30T23:12:28.144Z,31.05
2023-01-30T23:16:32.777Z,8.50
2023-01-30T23:20:34.221Z,4.85
2023-01-30T23:24:35.796Z,13.55
2023-01-30T23:28:38.315Z,10.45
2023-01-30T23:32:40.342Z,8.75
2023-01-30T23:36:42.307Z,7.60
2023-01-30T23:40:44.302Z,10.25
2023-01-30T23:44:45.713Z,11.40
2023-01-30T23:48:50.208Z,9.07
2023-01-30T23:52:51.640Z,3.33
2023-01-30T23:56:54.180Z,7.65
